Terminal Aerodrome Forecast
Issued by NWS Missoula, MT

Home | Current Version | Previous Version | Text Only | Print | Product List | Glossary On
Versions: 1 2 3 4 5 6 7 8 9 10 11 12 13 14 15 16 17 18 19 20 21 22
427
FTUS45 KMSO 170538
TAFMSO
TAF
KMSO 170538Z 1706/1806 29004KT P6SM BKN045
     FM171200 00000KT 4SM BR BKN006 OVC050
     FM171600 00000KT 6SM HZ SCT020 BKN060
     FM180000 24003KT P6SM VCSH OVC050
     FM180200 18005KT 4SM -SN BR OVC030=

USA.gov is the U.S. government's official web portal to all federal, state and local government web resources and services.